Rocha, Argentina
Current Conditions -  °F | °C
As of 11:00 PM on Sunday 21 Dec 2014 (Local Time) from SAZM Reporting Station
Clear Clear  
Wind Chill: 52°   Ceiling: Unl
Heat Index: 52°   Visibility: 4mi
Dew Point: 43°   Wind: 3mph
Humidity: 71%   Direction: 230°SW
Pressure: 29.88"   Gusts: NA
Location:  37.18°S, 60.97°W
Report Text: SAZM 220200Z 23003KT 6000 NSC 11/06 Q1012
Loading
Personal Weather Stations






























Interactive Weather Map New forecast layout! Learn more

10-Day Weather Forecast

Advertisements
Track Severe Weather on mobile